Weather reports worldwide

Advertisment
Faaroesund-ar, Sweden (2587): temperature & dewpoint: 06.07.2020 14:00:00 - 12.07.2020 14:00:00 (CEST)Faaroesund-ar, Sweden (2587): wind speed & gusts: 06.07.2020 14:00:00 - 12.07.2020 14:00:00 (CEST)Faaroesund-ar, Sweden (2587): wind direction: 06.07.2020 14:00:00 - 12.07.2020 14:00:00 (CEST)Faaroesund-ar, Sweden (2587): visibility: 06.07.2020 14:00:00 - 12.07.2020 14:00:00 (CEST)Faaroesund-ar, Sweden (2587): precipitation: 06.07.2020 14:00:00 - 12.07.2020 14:00:00 (CEST)
Date & Time tt [°C] td [°C] ff [km/h] ff [kn] fx [km/h] fx [kn] dd vv [km] rr [mm]
12.07.2020 14:00:00 18,4 9,0 14 8 29 16 W 37 0,0
12.07.2020 13:00:00 17,7 9,6 18 10 27 15 W 36 0,0
12.07.2020 12:00:00 17,1 9,5 16 9 27 15 WSW 44 0,0
12.07.2020 11:00:00 17,3 10,2 17 9 32 17 WSW 31 0,0
12.07.2020 10:00:00 16,6 9,5 19 11 28 15 WSW 38 0,0
12.07.2020 09:00:00 16,3 9,9 14 7 24 13 WSW 27 0,0
12.07.2020 08:00:00 15,3 10,9 16 9 25 13 WSW 38 0,0
12.07.2020 07:00:00 15,0 11,8 13 7 20 11 WSW 37 0,0
12.07.2020 06:00:00 14,0 11,9 11 6 16 9 WSW 45 0,0
12.07.2020 05:00:00 13,2 11,8 11 6 16 9 SW 43 0,0
12.07.2020 04:00:00 13,1 11,5 11 6 16 9 WSW 50 0,0
12.07.2020 03:00:00 13,5 11,9 13 7 17 9 WSW 50 0,0
12.07.2020 02:00:00 13,9 11,9 14 7 19 11 WSW 50 0,0
12.07.2020 01:00:00 13,9 11,8 13 7 20 11 SW 50 0,0
12.07.2020 00:00:00 13,7 11,2 14 8 22 12 SW 50 0,0
11.07.2020 23:00:00 14,2 11,2 15 8 24 13 SW 50 0,0
11.07.2020 22:00:00 14,9 10,5 17 9 24 13 SW 50 0,0
11.07.2020 21:00:00 16,0 8,7 0 0 31 17 N 50 0,0
11.07.2020 20:00:00 17,2 8,1 18 10 30 16 SW 50 0,0
11.07.2020 19:00:00 18,5 3,9 16 9 23 13 WSW 50 0,0
11.07.2020 18:00:00 18,5 5,3 11 6 21 12 WSW 49 0,0
11.07.2020 17:00:00 18,4 5,9 13 7 26 14 WSW 46 0,0
11.07.2020 16:00:00 18,3 7,1 15 8 32 18 W 47 0,0
11.07.2020 15:00:00 17,5 7,8 19 10 35 19 W 45 0,0
11.07.2020 14:00:00 16,6 9,0 25 14 35 19 WNW 50 0,0
11.07.2020 13:00:00 15,9 10,0 28 15 42 23 WNW 45 0,0
11.07.2020 12:00:00 15,2 10,2 30 16 40 22 W 40 0,0
11.07.2020 11:00:00 13,3 10,5 23 13 44 24 W 13 0,0
11.07.2020 10:00:00 13,9 10,5 38 20 46 25 WNW 49 0,0
11.07.2020 09:00:00 13,7 10,5 36 19 46 25 WNW 50 0,0
11.07.2020 08:00:00 13,4 10,9 26 14 45 24 WNW 29 0,0
11.07.2020 07:00:00 13,3 10,8 36 19 48 26 WNW 14 0,1
11.07.2020 06:00:00 13,5 11,0 42 23 53 29 WNW 50 0,0
11.07.2020 05:00:00 13,3 11,2 41 22 63 34 WNW 50 0,6
11.07.2020 04:00:00 12,7 11,6 53 29 70 38 WNW 3,2 1,5
11.07.2020 03:00:00 13,0 11,7 53 28 64 35 NW 5 1,5
11.07.2020 02:00:00 14,0 13,0 23 13 40 22 N 9 -
11.07.2020 01:00:00 14,3 13,7 23 12 34 18 NNE 4,2 4,0
11.07.2020 00:00:00 14,3 13,3 30 16 39 21 ENE 11 1,2
10.07.2020 23:00:00 14,5 12,9 23 12 31 17 E 50 0,6
10.07.2020 22:00:00 14,2 13,2 16 9 24 13 E 11 1,0
10.07.2020 21:00:00 13,9 12,1 15 8 19 11 E 50 0,6
10.07.2020 20:00:00 14,0 12,2 7 4 11 6 ESE 50 0,1
10.07.2020 19:00:00 14,3 12,5 8 4 17 9 SE 13 0,2
10.07.2020 18:00:00 15,4 11,0 12 6 22 12 SE 50 0,0
10.07.2020 17:00:00 16,0 11,4 10 6 22 12 SE 50 0,0
10.07.2020 16:00:00 16,1 9,7 16 8 25 13 SE 50 0,0
10.07.2020 15:00:00 16,5 10,6 19 11 28 15 ESE 50 0,0
10.07.2020 14:00:00 17,4 9,1 18 10 27 15 ESE 49 0,0
10.07.2020 13:00:00 17,7 8,5 17 9 25 13 ESE 46 0,0
10.07.2020 12:00:00 18,2 7,9 14 8 29 16 ESE 48 0,0
10.07.2020 11:00:00 17,2 7,8 14 8 24 13 ESE 41 0,0
10.07.2020 10:00:00 17,2 9,9 13 7 20 11 ESE 47 0,0
10.07.2020 09:00:00 16,7 9,1 10 5 22 12 ESE 47 0,0
10.07.2020 08:00:00 15,6 9,9 10 5 17 9 SE 49 0,0
10.07.2020 07:00:00 14,5 10,7 10 5 18 10 SSE 39 0,0
10.07.2020 06:00:00 13,2 10,7 8 5 16 9 SSE 50 0,0
10.07.2020 05:00:00 11,2 10,3 10 6 16 9 SE 44 0,0
10.07.2020 04:00:00 10,9 10,1 11 6 16 8 S 47 0,0
10.07.2020 03:00:00 10,8 9,7 9 5 19 10 S 48 0,0
10.07.2020 02:00:00 11,5 9,9 12 7 21 11 S 50 0,0
10.07.2020 01:00:00 11,7 9,1 13 7 21 12 S 50 0,0
10.07.2020 00:00:00 11,7 8,2 11 6 19 10 S 50 0,0
09.07.2020 23:00:00 13,3 7,9 13 7 19 11 SSW 50 0,0
09.07.2020 22:00:00 15,3 8,1 8 4 17 9 SW 50 0,0
09.07.2020 21:00:00 15,9 10,0 0 0 10 5 N 50 0,0
09.07.2020 20:00:00 16,5 8,0 4 2 13 7 ENE 50 0,0
09.07.2020 19:00:00 17,2 8,3 8 5 21 11 NW 50 0,0
09.07.2020 18:00:00 17,9 8,7 19 11 29 16 WNW 49 0,0
09.07.2020 17:00:00 17,6 7,3 26 14 35 19 WNW 50 0,0
09.07.2020 16:00:00 17,8 6,3 32 17 37 20 WNW 47 0,0
09.07.2020 15:00:00 18,4 5,6 16 9 33 18 W 48 0,0
09.07.2020 14:00:00 18,5 4,3 20 11 35 19 W 46 0,0
09.07.2020 13:00:00 17,9 3,4 24 13 39 21 W 48 0,0
09.07.2020 12:00:00 17,8 4,0 23 12 36 20 W 48 0,0
09.07.2020 11:00:00 17,2 7,0 17 9 33 18 W 48 0,0
09.07.2020 10:00:00 16,5 8,7 17 9 35 19 W 41 0,0
09.07.2020 09:00:00 15,4 9,3 21 12 34 19 W 50 0,0
09.07.2020 08:00:00 15,0 9,6 22 12 32 17 W 50 0,0
09.07.2020 07:00:00 14,6 9,4 19 10 32 17 W 47 0,0
09.07.2020 06:00:00 14,0 9,2 18 10 31 17 W 50 0,0
09.07.2020 05:00:00 13,7 8,7 20 11 30 16 W 50 0,0
09.07.2020 04:00:00 13,2 9,1 15 8 29 16 W 50 0,0
09.07.2020 03:00:00 13,5 8,6 17 9 28 15 W 50 0,0
09.07.2020 02:00:00 12,3 9,1 14 7 19 10 WSW 50 0,0
09.07.2020 01:00:00 12,4 9,2 14 7 19 10 SW 50 0,0
09.07.2020 00:00:00 11,8 9,2 12 7 18 10 SW 50 0,0
08.07.2020 23:00:00 12,3 8,8 12 6 17 9 SW 50 0,0
08.07.2020 22:00:00 13,0 8,1 13 7 21 11 SSW 50 0,0
08.07.2020 21:00:00 13,9 7,9 16 9 35 19 WSW 50 0,0
08.07.2020 20:00:00 14,8 7,4 18 10 34 19 WSW 50 0,0
08.07.2020 19:00:00 14,8 6,9 20 11 32 18 W 50 0,0
08.07.2020 18:00:00 14,8 5,8 19 11 31 17 W 50 0,0
08.07.2020 17:00:00 14,8 5,6 23 12 47 25 W 50 0,0
08.07.2020 16:00:00 15,7 6,9 26 14 42 23 W 47 0,0
08.07.2020 15:00:00 14,8 6,1 28 15 45 25 W 42 0,0
08.07.2020 14:00:00 15,0 8,0 27 15 50 27 W 49 0,0
08.07.2020 13:00:00 14,2 7,7 31 17 46 25 WSW 50 0,0
08.07.2020 12:00:00 12,9 10,4 19 10 39 21 SW 43 0,8
08.07.2020 11:00:00 11,3 9,7 17 9 56 30 SW 19 1,7
08.07.2020 10:00:00 13,3 7,3 22 12 40 22 SW 29 0,1
08.07.2020 09:00:00 13,3 6,2 20 11 32 18 SW 50 0,0
08.07.2020 08:00:00 13,7 5,6 20 11 30 16 SW 45 0,0
08.07.2020 07:00:00 11,8 7,5 13 7 24 13 SSW 40 0,0
08.07.2020 06:00:00 12,4 7,3 13 7 19 10 SSW 50 0,0
08.07.2020 05:00:00 11,7 7,8 6 4 22 12 SSW 50 0,0
08.07.2020 04:00:00 12,3 7,8 16 9 26 14 SW 50 0,0
08.07.2020 03:00:00 12,3 7,6 14 8 25 13 SW 50 0,0
08.07.2020 02:00:00 12,8 6,8 18 10 34 18 WSW 50 0,0
08.07.2020 01:00:00 13,0 8,3 13 7 39 21 WSW 50 0,0
08.07.2020 00:00:00 13,0 8,7 11 6 27 14 S 50 0,0
07.07.2020 23:00:00 14,1 8,3 13 7 32 17 SSW 50 0,0
07.07.2020 22:00:00 15,0 8,7 17 9 39 21 SW 50 0,0
07.07.2020 21:00:00 16,0 7,7 21 12 47 25 SW 50 0,0
07.07.2020 20:00:00 17,4 6,6 29 16 42 23 SW 50 0,0
07.07.2020 19:00:00 18,3 7,4 27 15 46 25 WSW 44 0,0
07.07.2020 18:00:00 19,3 5,7 27 15 44 24 WSW 49 0,0
07.07.2020 17:00:00 19,4 3,9 27 15 43 23 WSW 50 0,0
07.07.2020 16:00:00 19,1 5,2 26 14 45 25 WSW 50 0,0
07.07.2020 15:00:00 18,4 5,3 32 17 49 27 WSW 46 0,0
07.07.2020 14:00:00 18,4 6,9 32 18 48 26 W 42 0,0
07.07.2020 13:00:00 18,1 7,5 33 18 50 27 WSW 50 0,0
07.07.2020 12:00:00 17,3 8,2 32 18 53 28 WSW 50 0,0
07.07.2020 11:00:00 16,8 8,2 32 17 50 27 W 45 0,0
07.07.2020 10:00:00 16,0 9,2 30 16 54 29 W 50 0,0
07.07.2020 09:00:00 15,3 8,5 34 18 49 26 W 50 0,0
07.07.2020 08:00:00 14,5 9,9 31 17 50 27 W 50 0,0
07.07.2020 07:00:00 14,3 10,3 32 18 48 26 W 50 0,0
07.07.2020 06:00:00 14,0 9,8 27 14 49 26 W 50 0,0
07.07.2020 05:00:00 13,9 10,3 28 15 44 24 WSW 50 0,0
07.07.2020 04:00:00 13,9 9,9 26 14 46 25 W 50 0,0
07.07.2020 03:00:00 14,3 10,1 30 16 55 30 W 50 0,0
07.07.2020 02:00:00 14,9 10,9 31 17 52 28 WSW 31 0,0
07.07.2020 01:00:00 15,0 11,0 34 19 52 28 WSW 36 0,0
07.07.2020 00:00:00 14,9 10,5 32 18 51 28 SW 50 0,0
06.07.2020 23:00:00 15,1 10,1 35 19 54 29 SW 50 0,0
06.07.2020 22:00:00 15,3 9,4 33 18 56 30 SW 50 0,0
06.07.2020 21:00:00 16,1 8,1 34 18 53 28 SW 50 0,0
06.07.2020 20:00:00 17,2 8,6 36 20 62 33 SW 50 0,0
06.07.2020 19:00:00 17,8 8,4 33 18 54 29 SW 50 0,0
06.07.2020 18:00:00 18,2 7,3 38 20 63 34 SW 48 0,0
06.07.2020 17:00:00 18,5 6,7 41 22 61 33 SW 41 0,0
06.07.2020 16:00:00 18,7 7,5 36 19 61 33 SW 46 0,0
06.07.2020 15:00:00 18,4 8,4 35 19 62 33 SW 46 0,0
06.07.2020 14:00:00 17,5 7,8 35 19 63 34 SW 49 0,0

tt = temperature
td = dewpoint
ff = wind speed
fx = gusts
dd = wind direction
vv = visibility
rr = precipitation

Next stations